Sedro Woolley, Washington
Current Conditions -  °F | °C
As of 12:53 PM on Thursday 23 Oct 2014 (Local Time) from KBLI Reporting Station
Light Rain Light Rain  
Wind Chill: 52°   Ceiling: 2800
Heat Index: 52°   Visibility: 6mi
Dew Point: 48°   Wind: 9mph
Humidity: 86%   Direction: 170°S
Pressure: 29.76"   Gusts: NA
Location:  48.54°N, 122.19°W
Report Text: KBLI 231953Z 17008KT 6SM -RA FEW017 BKN028 OVC036 11/09 A2976 RMK AO2 RAB04 SLP085 P0000 T01110089
Loading
Personal Weather Stations






























Interactive Weather Map
Tropical Storm Tracking
New forecast layout! Learn more

10-Day Weather Forecast

Advertisements
Track Severe Weather on mobile